createdAt,value
2019-04-21T00:02:01.274Z,93.90
2019-04-21T00:04:42.985Z,93.90
2019-04-21T00:07:22.161Z,94.00
2019-04-21T00:10:09.075Z,94.30
2019-04-21T00:12:20.643Z,94.50
2019-04-21T00:14:43.830Z,94.60
2019-04-21T00:17:07.896Z,95.10
2019-04-21T00:19:38.630Z,94.90
2019-04-21T00:22:19.115Z,94.90
2019-04-21T00:24:49.740Z,94.90
2019-04-21T00:27:24.498Z,94.90
2019-04-21T00:29:58.806Z,95.00
2019-04-21T00:32:22.785Z,95.10
2019-04-21T00:34:41.097Z,95.20
2019-04-21T00:37:18.543Z,95.30
2019-04-21T00:42:31.096Z,95.50
2019-04-21T00:44:57.691Z,95.60
2019-04-21T00:47:31.743Z,95.80
2019-04-21T00:50:02.243Z,95.90
2019-04-21T00:52:56.571Z,96.10
2019-04-21T00:57:49.864Z,96.40
2019-04-21T01:00:14.195Z,96.50
2019-04-21T01:02:46.462Z,96.60
2019-04-21T01:05:13.892Z,96.60
2019-04-21T01:07:37.089Z,96.70
2019-04-21T01:10:02.363Z,96.80
2019-04-21T01:12:44.052Z,96.90
2019-04-21T01:15:18.338Z,97.00
2019-04-21T01:17:42.980Z,97.10
2019-04-21T01:20:02.836Z,97.20
2019-04-21T01:22:19.275Z,97.40
2019-04-21T01:24:57.790Z,97.50
2019-04-21T01:27:31.868Z,97.70
2019-04-21T01:30:14.757Z,97.80
2019-04-21T01:32:43.868Z,97.80
2019-04-21T01:35:12.008Z,98.00
2019-04-21T01:37:44.355Z,98.10
2019-04-21T01:40:21.039Z,98.40
2019-04-21T01:42:39.298Z,98.60
2019-04-21T01:45:12.476Z,98.70
2019-04-21T01:47:36.101Z,98.80
2019-04-21T01:49:59.030Z,98.90
2019-04-21T01:52:54.638Z,99.10
2019-04-21T01:55:18.342Z,99.10
2019-04-21T01:57:52.639Z,99.20
2019-04-21T02:00:30.509Z,99.20
2019-04-21T02:03:10.798Z,99.20
2019-04-21T02:05:37.606Z,99.30
2019-04-21T02:08:00.795Z,99.40
2019-04-21T02:10:34.292Z,99.40
2019-04-21T02:13:03.658Z,99.50
2019-04-21T02:15:38.975Z,99.50
2019-04-21T02:17:59.466Z,99.70
2019-04-21T02:20:25.745Z,99.70
2019-04-21T02:23:28.257Z,99.80
2019-04-21T02:25:38.597Z,99.90
2019-04-21T02:28:18.046Z,99.90
2019-04-21T02:31:03.014Z,99.90
2019-04-21T02:33:19.160Z,99.90
2019-04-21T02:36:17.065Z,99.90
2019-04-21T02:43:18.751Z,99.90
2019-04-21T02:45:47.204Z,99.90
2019-04-21T02:48:17.201Z,99.90
2019-04-21T02:55:52.137Z,99.90
2019-04-21T02:58:34.381Z,99.90
2019-04-21T03:01:23.901Z,99.90
2019-04-21T03:03:54.440Z,99.90
2019-04-21T03:06:24.661Z,99.90
2019-04-21T03:11:14.443Z,99.90
2019-04-21T03:13:57.406Z,99.90
2019-04-21T03:16:23.318Z,99.90
2019-04-21T03:18:57.145Z,99.90
2019-04-21T03:21:22.184Z,99.90
2019-04-21T03:23:54.866Z,99.90
2019-04-21T03:28:52.194Z,99.90
2019-04-21T03:34:28.780Z,99.90
2019-04-21T03:38:51.683Z,99.90
2019-04-21T03:41:33.822Z,99.90
2019-04-21T03:43:54.323Z,99.90
2019-04-21T03:49:10.613Z,99.90
2019-04-21T03:51:48.721Z,99.90
2019-04-21T03:53:54.302Z,99.90
2019-04-21T03:56:45.345Z,99.90
2019-04-21T03:58:58.559Z,99.90
2019-04-21T04:01:28.478Z,99.90
2019-04-21T04:04:15.471Z,99.90
2019-04-21T04:06:43.039Z,99.90
2019-04-21T04:11:45.675Z,99.90
2019-04-21T04:14:34.237Z,99.90
2019-04-21T04:16:58.039Z,99.90
2019-04-21T04:19:37.843Z,99.90
2019-04-21T04:21:52.463Z,99.90
2019-04-21T04:24:22.344Z,99.90
2019-04-21T04:26:45.591Z,99.90
2019-04-21T04:37:01.935Z,99.90
2019-04-21T04:49:49.590Z,99.90
2019-04-21T04:57:18.187Z,99.90
2019-04-21T04:59:42.544Z,99.90
2019-04-21T05:02:20.528Z,99.90
2019-04-21T05:07:16.977Z,99.90
2019-04-21T05:09:39.099Z,99.90
2019-04-21T05:12:01.928Z,99.90
2019-04-21T05:17:15.743Z,99.90
2019-04-21T05:22:19.184Z,99.90
2019-04-21T05:24:29.972Z,99.90
2019-04-21T05:26:59.558Z,99.90
2019-04-21T05:29:49.186Z,99.90
2019-04-21T05:32:40.261Z,99.90
2019-04-21T05:34:50.807Z,99.90
2019-04-21T05:37:35.154Z,99.90
2019-04-21T05:40:05.817Z,99.90
2019-04-21T05:42:33.235Z,99.90
2019-04-21T05:47:49.428Z,99.90
2019-04-21T05:50:18.398Z,99.90
2019-04-21T05:52:45.947Z,99.90
2019-04-21T05:55:34.119Z,99.90
2019-04-21T05:57:59.998Z,99.90
2019-04-21T06:00:46.723Z,99.90
2019-04-21T06:03:04.056Z,99.90
2019-04-21T06:05:39.027Z,99.90
2019-04-21T06:08:03.078Z,99.90
2019-04-21T06:10:38.010Z,99.90
2019-04-21T06:13:06.044Z,99.90
2019-04-21T06:15:37.398Z,99.90
2019-04-21T06:18:05.370Z,99.90
2019-04-21T06:20:35.450Z,99.90
2019-04-21T06:23:03.427Z,99.90
2019-04-21T06:28:04.673Z,99.90
2019-04-21T06:30:39.211Z,99.90
2019-04-21T06:33:01.727Z,99.90
2019-04-21T06:35:58.831Z,99.90
2019-04-21T06:38:21.338Z,99.90
2019-04-21T06:40:48.301Z,99.90
2019-04-21T06:43:29.376Z,99.90
2019-04-21T06:45:48.921Z,99.90
2019-04-21T06:48:18.690Z,99.90
2019-04-21T06:50:45.810Z,99.90
2019-04-21T06:53:26.056Z,99.90
2019-04-21T06:55:43.554Z,99.90
2019-04-21T06:58:11.929Z,99.80
2019-04-21T07:00:43.236Z,99.60
2019-04-21T07:03:19.287Z,99.50
2019-04-21T07:05:50.549Z,99.40
2019-04-21T07:10:44.851Z,99.00
2019-04-21T07:13:15.372Z,98.80
2019-04-21T07:15:58.525Z,98.60
2019-04-21T07:18:19.146Z,98.10
2019-04-21T07:20:50.475Z,98.10
2019-04-21T07:23:16.391Z,97.80
2019-04-21T07:25:49.758Z,97.90
2019-04-21T07:28:17.530Z,97.70
2019-04-21T07:30:51.613Z,98.00
2019-04-21T07:33:41.528Z,97.30
2019-04-21T07:35:44.078Z,97.10
2019-04-21T07:38:16.755Z,96.70
2019-04-21T07:40:43.142Z,96.30
2019-04-21T07:43:12.133Z,95.80
2019-04-21T07:45:40.807Z,95.50
2019-04-21T07:48:26.344Z,95.10
2019-04-21T07:51:11.187Z,94.70
2019-04-21T07:53:49.464Z,94.10
2019-04-21T07:56:06.621Z,93.80
2019-04-21T07:58:56.334Z,93.80
2019-04-21T08:01:22.689Z,93.40
2019-04-21T08:03:46.599Z,93.40
2019-04-21T08:06:22.768Z,93.20
2019-04-21T08:08:48.955Z,93.00
2019-04-21T08:11:16.767Z,92.40
2019-04-21T08:13:50.318Z,92.00
2019-04-21T08:16:20.123Z,91.60
2019-04-21T08:18:45.567Z,91.50
2019-04-21T08:21:22.032Z,91.20
2019-04-21T08:23:48.502Z,90.60
2019-04-21T08:26:17.086Z,90.60
2019-04-21T08:28:53.822Z,90.60
2019-04-21T08:31:30.780Z,90.40
2019-04-21T08:33:57.455Z,90.10
2019-04-21T08:38:54.498Z,89.10
2019-04-21T08:41:18.385Z,88.30
2019-04-21T08:44:02.233Z,87.80
2019-04-21T08:46:27.347Z,87.30
2019-04-21T08:48:55.312Z,86.30
2019-04-21T08:51:27.715Z,86.10
2019-04-21T08:53:57.418Z,85.70
2019-04-21T08:56:29.159Z,83.90
2019-04-21T09:01:47.351Z,84.40
2019-04-21T09:04:19.820Z,83.40
2019-04-21T09:06:55.637Z,82.70
2019-04-21T09:09:10.970Z,81.00
2019-04-21T09:11:46.180Z,79.70
2019-04-21T09:14:11.902Z,78.90
2019-04-21T09:16:35.618Z,77.60
2019-04-21T09:19:04.472Z,77.00
2019-04-21T09:21:43.564Z,76.20
2019-04-21T09:24:13.380Z,75.10
2019-04-21T09:26:35.618Z,73.50
2019-04-21T09:29:04.276Z,72.30
2019-04-21T09:31:25.966Z,71.50
2019-04-21T09:33:57.012Z,70.90
2019-04-21T09:36:25.435Z,69.30
2019-04-21T09:39:00.069Z,69.60
2019-04-21T09:41:25.785Z,68.90
2019-04-21T09:43:55.807Z,68.50
2019-04-21T09:46:23.574Z,66.60
2019-04-21T09:48:59.273Z,65.10
2019-04-21T09:51:22.203Z,64.20
2019-04-21T09:53:57.220Z,63.80
2019-04-21T09:56:32.452Z,62.80
2019-04-21T09:58:57.261Z,62.80
2019-04-21T10:01:28.701Z,61.40
2019-04-21T10:03:57.256Z,60.30
2019-04-21T10:06:23.773Z,59.80
2019-04-21T10:08:58.556Z,58.40
2019-04-21T10:11:22.733Z,57.30
2019-04-21T10:13:51.201Z,56.70
2019-04-21T10:16:21.898Z,55.00
2019-04-21T10:18:50.504Z,55.10
2019-04-21T10:21:19.795Z,55.10
2019-04-21T10:23:48.429Z,55.60
2019-04-21T10:26:17.191Z,54.90
2019-04-21T10:28:46.867Z,55.50
2019-04-21T10:31:16.627Z,56.00
2019-04-21T10:33:46.260Z,56.20
2019-04-21T10:36:15.191Z,56.30
2019-04-21T10:38:49.662Z,56.40
2019-04-21T10:41:15.144Z,56.90
2019-04-21T10:43:45.184Z,56.90
2019-04-21T10:46:14.941Z,56.40
2019-04-21T10:48:43.718Z,56.60
2019-04-21T10:51:13.052Z,56.40
2019-04-21T10:53:45.246Z,56.50
2019-04-21T10:56:21.821Z,55.90
2019-04-21T10:58:44.627Z,55.90
2019-04-21T11:01:15.016Z,55.90
2019-04-21T11:03:51.191Z,55.60
2019-04-21T11:06:21.115Z,55.60
2019-04-21T11:08:54.111Z,55.70
2019-04-21T11:11:21.780Z,54.80
2019-04-21T11:13:50.714Z,54.70
2019-04-21T11:16:19.528Z,54.10
2019-04-21T11:18:48.289Z,53.60
2019-04-21T11:21:17.113Z,52.50
2019-04-21T11:23:45.872Z,51.90
2019-04-21T11:26:15.889Z,51.60
2019-04-21T11:28:45.246Z,51.20
2019-04-21T11:31:15.368Z,50.60
2019-04-21T11:33:45.269Z,50.40
2019-04-21T11:36:15.477Z,50.00
2019-04-21T11:39:07.349Z,49.60
2019-04-21T11:41:21.927Z,49.10
2019-04-21T11:43:50.861Z,49.20
2019-04-21T11:46:20.495Z,48.70
2019-04-21T11:48:50.431Z,47.30
2019-04-21T11:51:19.290Z,46.70
2019-04-21T11:53:48.801Z,44.40
2019-04-21T11:56:18.739Z,42.70
2019-04-21T11:58:47.782Z,41.10
2019-04-21T12:01:17.856Z,39.50
2019-04-21T12:03:47.518Z,39.40
2019-04-21T12:06:17.339Z,39.50
2019-04-21T12:08:49.377Z,40.90
2019-04-21T12:11:35.710Z,42.60
2019-04-21T12:14:05.792Z,43.70
2019-04-21T12:16:35.330Z,44.50
2019-04-21T12:19:05.144Z,44.60
2019-04-21T12:21:46.646Z,44.80
2019-04-21T12:24:04.194Z,44.70
2019-04-21T12:26:33.779Z,44.10
2019-04-21T12:29:03.905Z,42.30
2019-04-21T12:31:37.208Z,40.90
2019-04-21T12:34:07.895Z,39.60
2019-04-21T12:36:43.756Z,38.20
2019-04-21T12:39:12.837Z,36.90
2019-04-21T12:41:42.621Z,35.10
2019-04-21T12:44:12.808Z,35.20
2019-04-21T12:46:41.413Z,35.20
2019-04-21T12:49:10.101Z,35.40
2019-04-21T12:51:39.797Z,35.10
2019-04-21T12:54:09.860Z,35.10
2019-04-21T12:56:38.510Z,35.00
2019-04-21T12:59:07.999Z,35.20
2019-04-21T13:01:37.036Z,35.60
2019-04-21T13:04:05.954Z,36.10
2019-04-21T13:06:34.474Z,36.30
2019-04-21T13:09:05.764Z,36.20
2019-04-21T13:11:35.089Z,36.90
2019-04-21T13:14:04.218Z,37.80
2019-04-21T13:16:33.679Z,38.80
2019-04-21T13:19:03.013Z,39.60
2019-04-21T13:21:32.016Z,40.40
2019-04-21T13:24:01.039Z,40.20
2019-04-21T13:26:39.477Z,39.90
2019-04-21T13:29:00.524Z,39.10
2019-04-21T13:31:30.069Z,38.70
2019-04-21T13:33:59.864Z,38.50
2019-04-21T13:36:29.650Z,38.00
2019-04-21T13:39:37.972Z,36.70
2019-04-21T13:41:51.791Z,35.90
2019-04-21T13:44:15.641Z,35.90
2019-04-21T13:46:45.080Z,35.00
2019-04-21T13:49:33.147Z,34.40
2019-04-21T13:52:02.641Z,33.70
2019-04-21T13:54:31.645Z,33.60
2019-04-21T13:57:00.704Z,33.70
2019-04-21T13:59:29.452Z,34.00
2019-04-21T14:01:58.421Z,34.20
2019-04-21T14:04:27.375Z,34.30
2019-04-21T14:06:56.423Z,34.20
2019-04-21T14:09:35.987Z,33.90
2019-04-21T14:11:55.802Z,34.20
2019-04-21T14:14:26.164Z,34.90
2019-04-21T14:16:56.056Z,35.60
2019-04-21T14:19:25.576Z,36.80
2019-04-21T14:21:55.223Z,37.80
2019-04-21T14:24:24.639Z,38.50
2019-04-21T14:26:54.336Z,40.10
2019-04-21T14:29:23.862Z,41.00
2019-04-21T14:31:52.848Z,42.10
2019-04-21T14:34:21.861Z,42.80
2019-04-21T14:36:50.826Z,43.50
2019-04-21T14:39:20.833Z,44.30
2019-04-21T14:41:50.461Z,44.90
2019-04-21T14:44:20.624Z,45.70
2019-04-21T14:46:51.320Z,46.00
2019-04-21T14:49:24.357Z,46.50
2019-04-21T14:51:57.371Z,46.60
2019-04-21T14:54:33.225Z,46.80
2019-04-21T14:57:03.239Z,47.10
2019-04-21T14:59:33.222Z,46.90
2019-04-21T15:02:02.205Z,47.00
2019-04-21T15:04:31.518Z,47.30
2019-04-21T15:07:01.294Z,47.90
2019-04-21T15:09:31.393Z,48.60
2019-04-21T15:12:02.260Z,48.80
2019-04-21T15:14:31.883Z,48.70
2019-04-21T15:17:00.957Z,49.20
2019-04-21T15:19:30.852Z,49.70
2019-04-21T15:22:18.813Z,50.00
2019-04-21T15:24:48.151Z,50.30
2019-04-21T15:27:16.937Z,50.90
2019-04-21T15:29:46.764Z,51.50
2019-04-21T15:32:16.801Z,51.70
2019-04-21T15:34:45.747Z,51.50
2019-04-21T15:37:15.699Z,51.10
2019-04-21T15:39:44.784Z,51.10
2019-04-21T15:42:14.582Z,52.10
2019-04-21T15:44:43.159Z,54.90
2019-04-21T15:47:11.624Z,56.90
2019-04-21T15:50:02.840Z,58.00
2019-04-21T15:52:27.731Z,59.30
2019-04-21T15:55:08.357Z,60.50
2019-04-21T15:57:42.544Z,60.80
2019-04-21T16:00:25.095Z,61.30
2019-04-21T16:02:54.820Z,62.20
2019-04-21T16:05:24.546Z,62.60
2019-04-21T16:07:54.172Z,63.10
2019-04-21T16:10:34.613Z,62.00
2019-04-21T16:12:53.864Z,61.20
2019-04-21T16:15:22.980Z,60.00
2019-04-21T16:17:53.107Z,59.30
2019-04-21T16:20:22.199Z,58.40
2019-04-21T16:22:50.765Z,57.20
2019-04-21T16:25:20.926Z,56.50
2019-04-21T16:27:50.934Z,55.90
2019-04-21T16:30:19.738Z,55.20
2019-04-21T16:32:48.383Z,54.10
2019-04-21T16:35:18.661Z,54.10
2019-04-21T16:37:47.785Z,53.70
2019-04-21T16:40:17.214Z,53.10
2019-04-21T16:42:46.122Z,52.00
2019-04-21T16:45:16.914Z,51.10
2019-04-21T16:47:47.476Z,50.70
2019-04-21T16:50:17.560Z,49.80
2019-04-21T16:52:56.715Z,48.30
2019-04-21T16:55:26.833Z,46.90
2019-04-21T16:58:04.255Z,46.00
2019-04-21T17:00:37.781Z,45.50
2019-04-21T17:03:00.755Z,45.50
2019-04-21T17:05:30.140Z,45.40
2019-04-21T17:07:59.692Z,46.50
2019-04-21T17:10:28.808Z,49.10
2019-04-21T17:12:57.661Z,52.20
2019-04-21T17:15:46.075Z,53.10
2019-04-21T17:18:13.102Z,55.20
2019-04-21T17:20:37.573Z,58.30
2019-04-21T17:22:57.751Z,60.90
2019-04-21T17:25:27.901Z,64.70
2019-04-21T17:27:56.941Z,67.40
2019-04-21T17:30:26.431Z,71.70
2019-04-21T17:32:55.469Z,78.20
2019-04-21T17:35:24.813Z,82.60
2019-04-21T17:37:54.285Z,87.30
2019-04-21T17:40:24.531Z,90.50
2019-04-21T17:43:01.504Z,91.80
2019-04-21T17:45:24.069Z,93.00
2019-04-21T17:47:59.752Z,94.50
2019-04-21T17:50:27.605Z,95.50
2019-04-21T17:53:05.247Z,96.30
2019-04-21T17:55:36.729Z,97.30
2019-04-21T17:58:16.233Z,98.30
2019-04-21T18:03:31.549Z,99.60
2019-04-21T18:05:50.552Z,99.90
2019-04-21T18:08:22.891Z,99.90
2019-04-21T18:10:49.363Z,99.90
2019-04-21T18:13:12.794Z,99.90
2019-04-21T18:15:53.398Z,99.90
2019-04-21T18:18:08.837Z,99.90
2019-04-21T18:20:41.940Z,99.90
2019-04-21T18:23:39.678Z,99.90
2019-04-21T18:26:03.871Z,99.90
2019-04-21T18:28:28.425Z,99.90
2019-04-21T18:31:04.687Z,99.90
2019-04-21T18:33:39.904Z,99.90
2019-04-21T18:36:08.483Z,99.90
2019-04-21T18:39:00.026Z,99.90
2019-04-21T18:41:11.269Z,99.90
2019-04-21T18:44:28.944Z,99.90
2019-04-21T18:47:02.619Z,99.90
2019-04-21T18:49:13.212Z,99.90
2019-04-21T18:52:08.079Z,99.90
2019-04-21T18:54:45.919Z,99.90
2019-04-21T18:57:07.685Z,99.90
2019-04-21T18:59:36.140Z,99.90
2019-04-21T19:02:06.332Z,99.90
2019-04-21T19:04:33.926Z,99.90
2019-04-21T19:07:14.236Z,99.90
2019-04-21T19:10:08.163Z,99.90
2019-04-21T19:12:23.756Z,99.90
2019-04-21T19:14:45.712Z,99.90
2019-04-21T19:17:52.846Z,99.90
2019-04-21T19:19:56.403Z,99.90
2019-04-21T19:22:15.291Z,99.90
2019-04-21T19:24:52.236Z,99.90
2019-04-21T19:27:22.630Z,99.90
2019-04-21T19:29:58.327Z,99.90
2019-04-21T19:34:37.943Z,99.90
2019-04-21T19:37:10.945Z,99.90
2019-04-21T19:39:48.835Z,99.90
2019-04-21T19:42:16.402Z,99.90
2019-04-21T19:44:52.148Z,99.90
2019-04-21T19:47:29.411Z,99.90
2019-04-21T19:49:55.154Z,99.90
2019-04-21T19:52:15.454Z,99.90
2019-04-21T19:54:40.937Z,99.90
2019-04-21T19:57:07.048Z,99.90
2019-04-21T19:59:42.666Z,99.90
2019-04-21T20:02:06.916Z,99.90
2019-04-21T20:04:42.891Z,99.90
2019-04-21T20:07:23.427Z,99.90
2019-04-21T20:09:50.453Z,99.90
2019-04-21T20:12:33.271Z,99.90
2019-04-21T20:15:00.688Z,99.90
2019-04-21T20:17:17.709Z,99.90
2019-04-21T20:19:38.393Z,99.90
2019-04-21T20:22:07.212Z,99.90
2019-04-21T20:24:39.263Z,99.90
2019-04-21T20:27:13.714Z,99.90
2019-04-21T20:29:57.886Z,99.90
2019-04-21T20:35:01.491Z,99.90
2019-04-21T20:37:29.734Z,99.90
2019-04-21T20:39:47.329Z,99.90
2019-04-21T20:42:21.543Z,99.90
2019-04-21T20:45:14.807Z,99.90
2019-04-21T20:47:20.084Z,99.90
2019-04-21T20:49:52.738Z,99.90
2019-04-21T20:54:59.769Z,99.90
2019-04-21T20:57:31.610Z,99.90
2019-04-21T21:00:05.809Z,99.90
2019-04-21T21:02:36.216Z,99.90
2019-04-21T21:04:56.419Z,99.90
2019-04-21T21:07:53.791Z,99.90
2019-04-21T21:10:04.912Z,99.90
2019-04-21T21:12:44.431Z,99.90
2019-04-21T21:14:57.632Z,99.90
2019-04-21T21:18:04.410Z,99.90
2019-04-21T21:20:07.890Z,99.90
2019-04-21T21:22:35.215Z,99.90
2019-04-21T21:25:03.792Z,99.90
2019-04-21T21:27:31.947Z,99.90
2019-04-21T21:30:07.265Z,99.90
2019-04-21T21:32:37.375Z,99.90
2019-04-21T21:35:10.844Z,99.90
2019-04-21T21:37:50.640Z,99.90
2019-04-21T21:40:19.989Z,99.90
2019-04-21T21:42:33.918Z,99.90
2019-04-21T21:45:04.917Z,99.90
2019-04-21T21:47:47.462Z,99.90
2019-04-21T21:50:07.639Z,99.90
2019-04-21T21:52:41.119Z,99.90
2019-04-21T21:54:58.189Z,99.90
2019-04-21T21:57:26.681Z,99.90
2019-04-21T22:00:02.775Z,99.90
2019-04-21T22:02:34.859Z,99.90
2019-04-21T22:05:05.311Z,99.90
2019-04-21T22:07:29.664Z,99.90
2019-04-21T22:09:57.889Z,99.90
2019-04-21T22:12:29.283Z,99.90
2019-04-21T22:14:57.580Z,99.90
2019-04-21T22:17:41.883Z,99.90
2019-04-21T22:20:14.210Z,99.90
2019-04-21T22:22:38.836Z,99.90
2019-04-21T22:25:06.943Z,99.90
2019-04-21T22:27:27.391Z,99.90
2019-04-21T22:29:59.830Z,99.90
2019-04-21T22:32:29.078Z,99.90
2019-04-21T22:35:01.579Z,99.90
2019-04-21T22:37:41.393Z,99.90
2019-04-21T22:40:08.598Z,99.90
2019-04-21T22:42:33.205Z,99.90
2019-04-21T22:44:58.317Z,99.90
2019-04-21T22:47:33.713Z,99.90
2019-04-21T22:49:57.329Z,99.90
2019-04-21T22:52:28.301Z,99.90
2019-04-21T22:54:56.083Z,99.90
2019-04-21T22:57:27.331Z,99.90
2019-04-21T23:00:01.042Z,99.90
2019-04-21T23:02:29.902Z,99.90
2019-04-21T23:04:58.236Z,99.90
2019-04-21T23:07:26.682Z,99.90
2019-04-21T23:09:55.959Z,99.90
2019-04-21T23:12:28.087Z,99.90
2019-04-21T23:15:01.856Z,99.90
2019-04-21T23:17:48.292Z,99.90
2019-04-21T23:20:17.291Z,99.90
2019-04-21T23:22:56.904Z,99.90
2019-04-21T23:25:15.470Z,99.90
2019-04-21T23:27:46.907Z,99.90
2019-04-21T23:30:20.138Z,99.90
2019-04-21T23:32:35.986Z,99.90
2019-04-21T23:35:01.760Z,99.90
2019-04-21T23:37:28.978Z,99.90
2019-04-21T23:40:04.173Z,99.90
2019-04-21T23:42:34.316Z,99.90
2019-04-21T23:44:59.544Z,99.90
2019-04-21T23:47:39.573Z,99.90
2019-04-21T23:50:05.385Z,99.90
2019-04-21T23:52:29.749Z,99.90
2019-04-21T23:54:59.082Z,99.90
2019-04-21T23:57:35.292Z,99.90
2019-04-21T23:59:59.635Z,99.90
